Time;durP1;ratioP1;P1;durP2;ratioP2;P2;SDS_P1;SDS_P2;PMS_P1;PMS_P2;Temp;Humidity;BMP_temperature;BMP_pressure;BME280_temperature;BME280_humidity;BME280_pressure;Samples;Min_cycle;Max_cycle;Signal;HPM_P1;HPM_P2
2022/09/13 00:01:06;;;;;;;13.65;10.88;;;;;;;18.17;100.00;100867.50;5052022;28;20135;-52
2022/09/13 00:03:34;;;;;;;14.77;11.18;;;;;;;18.13;100.00;100861.63;5052146;28;20503;-53
2022/09/13 00:06:10;;;;;;;16.05;10.93;;;;;;;18.21;100.00;100852.91;5051052;28;20041;-52
2022/09/13 00:08:38;;;;;;;14.52;11.35;;;;;;;18.21;100.00;100860.91;5050766;28;20107;-53
2022/09/13 00:11:07;;;;;;;16.08;11.20;;;;;;;18.22;100.00;100859.94;5052709;28;20345;-52
2022/09/13 00:13:35;;;;;;;14.18;10.80;;;;;;;18.20;100.00;100856.56;5052085;28;20046;-51
2022/09/13 00:16:04;;;;;;;17.30;11.73;;;;;;;18.18;100.00;100858.53;5051404;28;20041;-51
2022/09/13 00:18:33;;;;;;;14.68;11.55;;;;;;;18.21;100.00;100858.25;5052063;28;20503;-54
2022/09/13 00:21:10;;;;;;;17.00;12.00;;;;;;;18.21;100.00;100852.91;5050905;28;20152;-53
2022/09/13 00:23:44;;;;;;;19.48;12.00;;;;;;;18.18;100.00;100847.91;5051864;28;20500;-51
2022/09/13 00:26:14;;;;;;;16.70;12.48;;;;;;;18.18;100.00;100840.75;5051917;28;20045;-54
2022/09/13 00:28:44;;;;;;;15.40;11.43;;;;;;;18.15;100.00;100837.56;5052359;28;20156;-52
2022/09/13 00:31:12;;;;;;;15.88;11.82;;;;;;;18.19;100.00;100836.28;5051128;28;20516;-54
2022/09/13 00:33:42;;;;;;;15.02;11.70;;;;;;;18.16;100.00;100831.22;5050770;28;20055;-53
2022/09/13 00:36:14;;;;;;;15.10;10.98;;;;;;;18.17;100.00;100836.41;5050896;28;20084;-52
2022/09/13 00:38:44;;;;;;;19.20;11.55;;;;;;;18.14;100.00;100833.22;5050255;28;20045;-53
2022/09/13 00:41:15;;;;;;;16.13;10.70;;;;;;;18.25;100.00;100825.00;5051516;28;20055;-53
2022/09/13 00:43:48;;;;;;;12.88;10.60;;;;;;;18.23;100.00;100827.00;5051379;28;20052;-53
2022/09/13 00:46:34;;;;;;;16.15;10.75;;;;;;;18.15;100.00;100817.09;5050905;28;20492;-51
2022/09/13 00:49:13;;;;;;;14.35;11.00;;;;;;;18.12;100.00;100824.53;5050084;28;20127;-49
2022/09/13 00:51:45;;;;;;;13.40;10.18;;;;;;;18.15;100.00;100822.44;5050284;28;20503;-52
2022/09/13 00:54:16;;;;;;;17.40;10.40;;;;;;;18.11;100.00;100823.72;5050619;28;20053;-52
2022/09/13 00:56:49;;;;;;;14.65;10.20;;;;;;;18.16;100.00;100825.91;5050747;28;20048;-51
2022/09/13 00:59:23;;;;;;;15.15;11.43;;;;;;;18.16;100.00;100831.22;5051349;28;20053;-51
2022/09/13 01:01:55;;;;;;;16.48;11.27;;;;;;;18.12;100.00;100824.53;5050679;28;20053;-52
2022/09/13 01:04:27;;;;;;;16.80;11.57;;;;;;;18.19;100.00;100822.97;5051155;28;20122;-47
2022/09/13 01:07:00;;;;;;;14.25;11.15;;;;;;;18.15;100.00;100818.94;5050100;28;20044;-49
2022/09/13 01:09:32;;;;;;;13.38;10.70;;;;;;;18.12;100.00;100824.53;5049486;28;20052;-52
2022/09/13 01:12:07;;;;;;;15.15;11.77;;;;;;;18.07;100.00;100817.84;5051451;28;20559;-53
2022/09/13 01:14:38;;;;;;;15.85;11.75;;;;;;;18.16;100.00;100818.78;5050852;28;20448;-53
2022/09/13 01:17:08;;;;;;;15.88;12.35;;;;;;;18.15;100.00;100818.94;5050871;28;20045;-51
2022/09/13 01:19:38;;;;;;;16.33;13.18;;;;;;;18.14;100.00;100815.41;5051061;28;20055;-52
2022/09/13 01:22:35;;;;;;;16.77;11.98;;;;;;;18.25;100.00;100809.03;5050736;28;20053;-49
2022/09/13 01:25:29;;;;;;;18.45;12.95;;;;;;;18.24;100.00;100810.03;5050774;28;20369;-52
2022/09/13 01:28:17;;;;;;;15.27;11.57;;;;;;;18.19;100.00;100804.34;5051081;28;20103;-53
2022/09/13 01:30:55;;;;;;;15.95;11.68;;;;;;;18.20;100.00;100806.00;5050390;28;20127;-51
2022/09/13 01:33:44;;;;;;;16.92;12.35;;;;;;;18.25;100.00;100801.06;5050362;28;20100;-51
2022/09/13 01:36:31;;;;;;;16.08;11.95;;;;;;;18.19;100.00;100793.69;5049445;28;20127;-53
2022/09/13 01:39:04;;;;;;;16.05;11.55;;;;;;;18.10;100.00;100795.41;5050789;28;20049;-54
2022/09/13 01:41:46;;;;;;;15.45;12.20;;;;;;;18.09;100.00;100807.03;5050044;28;20061;-49
2022/09/13 01:44:24;;;;;;;19.40;13.55;;;;;;;18.12;100.00;100793.47;5050199;28;20395;-52
2022/09/13 01:47:03;;;;;;;17.80;12.70;;;;;;;18.19;100.00;100799.03;5048873;28;20045;-51
2022/09/13 01:49:42;;;;;;;15.82;12.70;;;;;;;18.20;100.00;100790.03;5049298;28;20064;-50
2022/09/13 01:52:20;;;;;;;16.80;12.30;;;;;;;18.11;100.00;100794.44;5050429;28;20438;-53
2022/09/13 01:54:56;;;;;;;17.13;12.70;;;;;;;18.07;100.00;100795.72;5049848;28;20135;-52
2022/09/13 01:57:31;;;;;;;17.90;12.82;;;;;;;18.07;100.00;100807.19;5050121;28;20049;-52
2022/09/13 02:00:03;;;;;;;16.85;12.43;;;;;;;18.08;100.00;100816.88;5050108;28;20419;-52
2022/09/13 02:02:38;;;;;;;16.20;12.68;;;;;;;18.06;100.00;100802.88;5050240;28;20118;-52
2022/09/13 02:05:12;;;;;;;16.08;11.75;;;;;;;18.01;100.00;100810.47;5049352;28;20127;-48
2022/09/13 02:07:43;;;;;;;14.48;12.60;;;;;;;18.03;100.00;100797.84;5049219;28;20081;-51
2022/09/13 02:10:19;;;;;;;19.17;14.07;;;;;;;17.98;100.00;100805.44;5048635;28;20121;-52
2022/09/13 02:12:49;;;;;;;18.33;13.68;;;;;;;17.96;100.00;100803.94;5050476;28;20357;-53
2022/09/13 02:15:22;;;;;;;17.27;13.55;;;;;;;17.97;100.00;100797.59;5049644;28;20566;-53
2022/09/13 02:17:54;;;;;;;;;;;;;;;18.01;100.00;100804.28;5050596;28;20080;-53
2022/09/13 02:20:28;;;;;;;17.77;14.23;;;;;;;17.96;100.00;100799.44;5049323;28;19927;-52
2022/09/13 02:23:02;;;;;;;16.83;13.73;;;;;;;17.93;100.00;100798.88;5050216;28;20480;-51
2022/09/13 02:25:32;;;;;;;18.63;13.73;;;;;;;18.09;100.00;100799.06;5049635;28;20110;-53
2022/09/13 02:28:06;;;;;;;19.38;13.80;;;;;;;18.06;100.00;100802.88;5052279;28;20045;-52
2022/09/13 02:30:39;;;;;;;17.98;13.85;;;;;;;18.01;100.00;100801.63;5053654;28;20053;-52
2022/09/13 02:33:11;;;;;;;;;;;;;;;17.97;100.00;100795.78;5055071;28;20102;-51
2022/09/13 02:35:44;;;;;;;16.98;13.55;;;;;;;17.96;100.00;100796.78;5053352;28;19924;-53
2022/09/13 02:38:18;;;;;;;16.27;13.52;;;;;;;17.95;100.00;100797.75;5052453;28;20049;-52
2022/09/13 02:40:53;;;;;;;18.48;14.55;;;;;;;17.99;100.00;100798.31;5053681;28;20060;-51
2022/09/13 02:43:28;;;;;;;17.38;13.68;;;;;;;18.03;100.00;100800.50;5053508;28;20050;-53
2022/09/13 02:46:08;;;;;;;17.75;13.65;;;;;;;18.06;100.00;100789.59;5053060;28;20060;-54
2022/09/13 02:48:49;;;;;;;21.15;14.43;;;;;;;17.98;100.00;100801.94;5053970;28;20052;-53
2022/09/13 02:51:29;;;;;;;18.17;13.27;;;;;;;18.04;100.00;100802.19;5052354;28;20052;-52
2022/09/13 02:54:09;;;;;;;19.95;13.60;;;;;;;17.99;100.00;100798.31;5053144;28;20053;-53
2022/09/13 02:56:48;;;;;;;16.95;12.82;;;;;;;17.99;100.00;100800.97;5053536;28;20667;-53
2022/09/13 02:59:17;;;;;;;16.70;13.05;;;;;;;17.91;100.00;100801.66;5053961;28;20376;-51
2022/09/13 03:01:50;;;;;;;15.73;12.82;;;;;;;17.91;100.00;100796.34;5053230;28;20127;-50
2022/09/13 03:04:20;;;;;;;;;;;;;;;17.95;100.00;100807.56;5054141;28;20053;-50
2022/09/13 03:06:49;;;;;;;16.23;12.23;;;;;;;17.95;100.00;100803.06;5051259;28;19936;-54
2022/09/13 03:09:18;;;;;;;16.10;11.90;;;;;;;17.94;100.00;100814.69;5052887;28;20055;-54
2022/09/13 03:12:06;;;;;;;18.77;13.23;;;;;;;17.95;100.00;100791.59;5052700;28;20045;-52
2022/09/13 03:14:46;;;;;;;16.23;12.10;;;;;;;17.90;100.00;100799.97;5053182;28;20175;-53
2022/09/13 03:17:34;;;;;;;17.70;12.05;;;;;;;17.91;100.00;100799.00;5052861;28;20125;-52
2022/09/13 03:20:17;;;;;;;17.85;12.73;;;;;;;17.88;100.00;100805.47;5052055;28;20056;-52
2022/09/13 03:23:10;;;;;;;16.73;12.30;;;;;;;17.87;100.00;100811.78;5052785;28;20123;-54
2022/09/13 03:25:57;;;;;;;16.00;12.65;;;;;;;17.98;100.00;100817.91;5053304;28;20095;-53
2022/09/13 03:28:37;;;;;;;17.10;12.35;;;;;;;17.96;100.00;100806.59;5053398;28;20083;-53
2022/09/13 03:31:10;;;;;;;16.13;12.82;;;;;;;17.95;100.00;100808.41;5052159;28;20048;-54
2022/09/13 03:33:46;;;;;;;16.73;12.70;;;;;;;17.93;100.00;100810.38;5051750;28;20490;-54
2022/09/13 03:36:24;;;;;;;17.00;13.30;;;;;;;17.89;100.00;100806.31;5051169;28;20099;-52
2022/09/13 03:39:00;;;;;;;17.25;12.30;;;;;;;17.92;100.00;100808.69;5051374;28;20045;-52
2022/09/13 03:41:34;;;;;;;16.40;11.82;;;;;;;17.97;100.00;100811.75;5051169;28;20155;-54
2022/09/13 03:44:06;;;;;;;16.63;12.85;;;;;;;17.95;100.00;100816.38;5053263;28;20503;-53
2022/09/13 03:46:37;;;;;;;17.27;13.43;;;;;;;17.94;100.00;100820.00;5052397;28;20045;-52
2022/09/13 03:49:09;;;;;;;17.20;13.77;;;;;;;17.87;100.00;100810.94;5051460;28;20049;-52
2022/09/13 03:51:39;;;;;;;17.75;13.43;;;;;;;17.87;100.00;100816.25;5050339;28;20076;-55
2022/09/13 03:54:12;;;;;;;16.38;12.95;;;;;;;17.88;100.00;100816.09;5050985;28;20148;-54
2022/09/13 03:56:40;;;;;;;;;;;;;;;17.97;100.00;100816.22;5052792;28;20106;-54
2022/09/13 03:59:08;;;;;;;16.55;13.00;;;;;;;17.93;100.00;100814.84;5052560;28;19932;-54
2022/09/13 04:01:36;;;;;;;17.17;12.40;;;;;;;17.90;100.00;100815.94;5052156;28;20049;-53
2022/09/13 04:04:04;;;;;;;17.48;13.10;;;;;;;17.85;100.00;100821.72;5052691;28;20045;-55
2022/09/13 04:06:35;;;;;;;17.77;12.65;;;;;;;17.87;100.00;100811.78;5051393;28;20033;-54
2022/09/13 04:09:04;;;;;;;17.33;12.85;;;;;;;17.86;100.00;100814.56;5052272;28;20052;-51
2022/09/13 04:11:32;;;;;;;16.23;13.15;;;;;;;17.90;100.00;100810.63;5050586;28;20064;-50
2022/09/13 04:14:00;;;;;;;18.17;12.32;;;;;;;17.83;100.00;100804.22;5052379;28;20103;-53
2022/09/13 04:16:31;;;;;;;17.70;13.45;;;;;;;17.89;100.00;100811.63;5050902;28;20496;-54
2022/09/13 04:18:59;;;;;;;18.02;14.27;;;;;;;17.86;100.00;100811.91;5052327;28;20147;-54
2022/09/13 04:21:27;;;;;;;18.02;14.27;;;;;;;17.77;100.00;100802.19;5050716;28;20330;-54
2022/09/13 04:23:55;;;;;;;19.45;13.48;;;;;;;17.78;100.00;100803.84;5051939;28;20069;-55
2022/09/13 04:26:28;;;;;;;16.15;13.02;;;;;;;17.78;100.00;100801.19;5051770;28;20053;-52
2022/09/13 04:28:56;;;;;;;18.00;13.23;;;;;;;17.77;100.00;100800.34;5051908;28;20103;-53
2022/09/13 04:31:24;;;;;;;18.15;13.32;;;;;;;17.69;100.00;100802.91;5050675;28;20543;-53
2022/09/13 04:33:52;;;;;;;17.55;13.40;;;;;;;17.81;100.00;100808.88;5051510;28;20059;-55
2022/09/13 04:36:21;;;;;;;17.55;13.32;;;;;;;17.81;100.00;100807.03;5048718;28;20064;-55
2022/09/13 04:38:49;;;;;;;18.30;13.35;;;;;;;17.79;100.00;100809.00;5051491;28;20563;-53
2022/09/13 04:41:17;;;;;;;17.95;14.27;;;;;;;17.77;100.00;100810.16;5051084;28;20473;-53
2022/09/13 04:43:50;;;;;;;16.30;13.57;;;;;;;17.76;100.00;100816.47;5051376;28;20045;-52
2022/09/13 04:46:21;;;;;;;19.38;13.95;;;;;;;17.72;100.00;100814.09;5050642;28;20052;-52
2022/09/13 04:48:50;;;;;;;18.77;13.85;;;;;;;17.69;100.00;100813.53;5051841;28;20819;-52
2022/09/13 04:51:18;;;;;;;19.90;13.77;;;;;;;17.73;100.00;100817.59;5049721;28;20093;-51
2022/09/13 04:53:47;;;;;;;16.42;13.27;;;;;;;17.69;100.00;100825.00;5051501;28;20828;-49
2022/09/13 04:56:15;;;;;;;16.40;13.80;;;;;;;17.74;100.00;100825.41;5050797;28;20134;-52
2022/09/13 04:58:43;;;;;;;17.25;14.07;;;;;;;17.82;100.00;100835.31;5051169;28;20053;-49
2022/09/13 05:01:13;;;;;;;19.83;15.07;;;;;;;17.83;100.00;100837.00;5051166;28;20530;-49
2022/09/13 05:03:41;;;;;;;19.77;15.07;;;;;;;17.74;100.00;100837.88;5051452;28;20044;-52
2022/09/13 05:06:10;;;;;;;20.08;15.07;;;;;;;17.78;100.00;100841.94;5049942;28;20037;-52
2022/09/13 05:08:38;;;;;;;17.35;13.88;;;;;;;17.74;100.00;100837.88;5051028;28;20080;-48
2022/09/13 05:11:07;;;;;;;19.92;15.55;;;;;;;17.68;100.00;100836.66;5051130;28;20076;-48
2022/09/13 05:13:36;;;;;;;19.48;15.05;;;;;;;17.69;100.00;100835.66;5051309;28;20495;-53
2022/09/13 05:16:06;;;;;;;18.63;14.50;;;;;;;17.78;100.00;100836.59;5050789;28;20100;-54
2022/09/13 05:18:36;;;;;;;17.50;14.57;;;;;;;17.78;100.00;100839.25;5050970;28;20120;-53
2022/09/13 05:21:11;;;;;;;18.30;15.40;;;;;;;17.76;100.00;100829.75;5049733;28;20099;-52
2022/09/13 05:23:39;;;;;;;18.58;15.10;;;;;;;17.76;100.00;100829.75;5051165;28;20051;-52
2022/09/13 05:26:07;;;;;;;16.83;13.63;;;;;;;17.78;100.00;100833.09;5049536;28;21221;-51
2022/09/13 05:28:36;;;;;;;17.35;14.02;;;;;;;17.81;100.00;100836.31;5051137;28;20040;-52
2022/09/13 05:31:06;;;;;;;17.70;13.95;;;;;;;17.86;100.00;100834.03;5050426;28;20056;-52
2022/09/13 05:33:38;;;;;;;21.63;14.98;;;;;;;17.95;100.00;100836.84;5051044;28;20403;-52
2022/09/13 05:36:07;;;;;;;18.55;14.63;;;;;;;17.94;100.00;100843.13;5048842;28;20048;-52
2022/09/13 05:38:34;;;;;;;18.10;14.57;;;;;;;17.88;100.00;100841.88;5050662;28;20033;-53
2022/09/13 05:41:04;;;;;;;18.95;14.60;;;;;;;17.87;100.00;100842.84;5049300;28;20103;-52
2022/09/13 05:43:34;;;;;;;19.00;14.88;;;;;;;17.83;100.00;100847.66;5050677;28;20041;-53
2022/09/13 05:46:07;;;;;;;20.45;15.75;;;;;;;17.87;100.00;100856.16;5050228;28;20068;-52
2022/09/13 05:48:36;;;;;;;18.75;14.23;;;;;;;17.85;100.00;100856.31;5050401;28;20499;-52
2022/09/13 05:51:06;;;;;;;18.88;15.57;;;;;;;17.88;100.00;100849.84;5049313;28;20079;-51
2022/09/13 05:53:34;;;;;;;19.65;15.15;;;;;;;17.96;100.00;100852.66;5050178;28;20044;-50
2022/09/13 05:56:03;;;;;;;21.60;14.80;;;;;;;17.93;100.00;100847.63;5050071;28;20053;-50
2022/09/13 05:58:32;;;;;;;19.67;15.18;;;;;;;17.87;100.00;100864.13;5049768;28;20140;-51
2022/09/13 06:01:00;;;;;;;20.10;15.32;;;;;;;17.86;100.00;100855.31;5049670;28;20060;-52
2022/09/13 06:03:31;;;;;;;19.02;15.40;;;;;;;17.88;100.00;100861.31;5048025;28;20041;-52
2022/09/13 06:06:01;;;;;;;18.40;14.23;;;;;;;17.92;100.00;100859.25;5049217;28;20526;-53
2022/09/13 06:08:33;;;;;;;19.17;15.63;;;;;;;17.95;100.00;100861.59;5049516;28;20043;-54
2022/09/13 06:11:03;;;;;;;18.27;15.10;;;;;;;17.98;100.00;100863.97;5048703;28;20744;-52
2022/09/13 06:13:32;;;;;;;19.65;15.40;;;;;;;18.10;100.00;100864.59;5049117;28;20057;-50
2022/09/13 06:16:02;;;;;;;18.40;15.77;;;;;;;18.15;100.00;100859.69;5049417;28;20037;-49
2022/09/13 06:18:31;;;;;;;21.80;16.42;;;;;;;18.12;100.00;100860.00;5050247;28;20045;-51
2022/09/13 06:21:02;;;;;;;22.65;17.00;;;;;;;18.16;100.00;100868.50;5049434;28;20127;-52
2022/09/13 06:23:31;;;;;;;21.92;16.85;;;;;;;18.20;100.00;100870.72;5049654;28;20515;-55
2022/09/13 06:26:03;;;;;;;20.50;16.95;;;;;;;18.25;100.00;100870.25;5050307;28;20040;-55
2022/09/13 06:28:32;;;;;;;20.63;16.40;;;;;;;18.30;100.00;100861.84;5050127;28;20978;-53
2022/09/13 06:31:06;;;;;;;22.67;17.15;;;;;;;18.35;100.00;100872.84;5049067;28;20081;-52
2022/09/13 06:33:38;;;;;;;21.27;17.27;;;;;;;18.39;100.00;100877.75;5050248;28;20037;-52
2022/09/13 06:36:10;;;;;;;22.70;16.33;;;;;;;18.44;100.00;100866.63;5049096;28;20053;-50
2022/09/13 06:38:39;;;;;;;20.92;16.83;;;;;;;18.49;100.00;100853.72;5049818;28;20052;-53
2022/09/13 06:41:09;;;;;;;21.98;17.83;;;;;;;18.57;100.00;100861.78;5048931;28;20392;-55
2022/09/13 06:43:38;;;;;;;21.33;17.00;;;;;;;18.58;100.00;100859.94;5050635;28;20044;-53
2022/09/13 06:46:10;;;;;;;23.63;17.92;;;;;;;18.60;100.00;100855.31;5049252;28;20124;-55
2022/09/13 06:48:40;;;;;;;29.73;19.93;;;;;;;18.66;100.00;100860.03;5049250;28;20045;-55
2022/09/13 06:51:13;;;;;;;23.88;19.20;;;;;;;18.69;100.00;100856.22;5048758;28;20445;-54
2022/09/13 06:53:42;;;;;;;26.75;18.13;;;;;;;18.74;100.00;100844.09;5049564;28;20503;-54
2022/09/13 06:56:14;;;;;;;23.38;17.77;;;;;;;18.82;100.00;100851.34;5049395;28;20531;-56
2022/09/13 06:58:45;;;;;;;22.02;18.45;;;;;;;18.88;100.00;100848.09;5048448;28;20056;-56
2022/09/13 07:01:16;;;;;;;23.80;17.90;;;;;;;18.95;100.00;100855.47;5048693;28;20045;-54
2022/09/13 07:03:46;;;;;;;21.02;18.02;;;;;;;19.02;100.00;100857.38;5048609;28;20075;-53
2022/09/13 07:06:18;;;;;;;21.52;17.75;;;;;;;19.07;100.00;100855.09;5048222;28;20073;-54
2022/09/13 07:08:51;;;;;;;20.75;17.95;;;;;;;19.12;100.00;100865.25;5049189;28;20052;-55
2022/09/13 07:11:21;;;;;;;24.05;18.48;;;;;;;19.21;100.00;100863.47;5049306;28;20049;-54
2022/09/13 07:13:50;;;;;;;24.80;18.00;;;;;;;19.28;100.00;100875.22;5050828;28;20103;-55
2022/09/13 07:16:19;;;;;;;25.27;19.10;;;;;;;19.31;100.00;100871.41;5052607;28;20427;-56
2022/09/13 07:18:52;;;;;;;22.75;17.73;;;;;;;19.33;100.00;100866.72;5053407;28;20076;-53
2022/09/13 07:21:22;;;;;;;24.40;18.10;;;;;;;19.38;100.00;100870.59;5051817;28;20050;-53
2022/09/13 07:23:52;;;;;;;24.90;19.60;;;;;;;19.46;100.00;100869.00;5053222;28;20077;-49
2022/09/13 07:26:20;;;;;;;25.42;20.30;;;;;;;19.49;100.00;100869.50;5052977;28;20127;-53
2022/09/13 07:28:51;;;;;;;27.73;20.27;;;;;;;19.59;100.00;100872.06;5053237;28;20048;-53
2022/09/13 07:31:21;;;;;;;27.52;21.00;;;;;;;19.67;100.00;100880.09;5071476;28;20087;-55
2022/09/13 07:33:54;;;;;;;23.60;20.25;;;;;;;19.74;100.00;100881.16;5073064;28;20593;-54
2022/09/13 07:36:23;;;;;;;;;;;;;;;19.82;100.00;100874.22;5071991;28;20470;-54
2022/09/13 07:38:51;;;;;;;25.10;20.10;;;;;;;19.92;100.00;100877.59;5071915;28;19974;-53
2022/09/13 07:41:21;;;;;;;26.98;21.10;;;;;;;19.99;100.00;100867.94;5072264;28;20385;-54
2022/09/13 07:43:50;;;;;;;26.25;20.20;;;;;;;20.05;100.00;100872.63;5072947;28;20053;-54
2022/09/13 07:46:20;;;;;;;28.05;21.42;;;;;;;20.24;100.00;100876.03;5071997;28;20048;-55
2022/09/13 07:48:49;;;;;;;30.63;21.90;;;;;;;20.44;100.00;100872.06;5072769;28;20055;-54
2022/09/13 07:51:19;;;;;;;30.55;21.48;;;;;;;20.60;100.00;100886.44;5071592;28;20047;-52
2022/09/13 07:53:52;;;;;;;27.23;20.40;;;;;;;20.80;100.00;100883.50;5072364;28;20544;-55
2022/09/13 07:56:26;;;;;;;27.10;20.67;;;;;;;20.86;100.00;100891.69;5072394;28;20048;-54
2022/09/13 07:58:54;;;;;;;28.02;19.55;;;;;;;21.08;100.00;100887.50;5072486;28;20044;-54
2022/09/13 08:01:24;;;;;;;25.95;19.73;;;;;;;21.23;100.00;100884.16;5053808;28;20051;-53
2022/09/13 08:03:53;;;;;;;24.40;16.77;;;;;;;21.45;100.00;100886.13;5072608;28;20499;-55
2022/09/13 08:06:22;;;;;;;17.63;12.73;;;;;;;21.57;100.00;100885.81;5071265;28;20052;-54
2022/09/13 08:08:52;;;;;;;15.57;11.27;;;;;;;21.78;100.00;100894.09;5072060;28;20139;-54
2022/09/13 08:11:21;;;;;;;17.45;11.38;;;;;;;21.80;100.00;100883.22;5071878;28;20052;-56
2022/09/13 08:13:51;;;;;;;16.15;10.15;;;;;;;21.94;100.00;100893.19;5072399;28;20090;-55
2022/09/13 08:16:24;;;;;;;14.23;10.23;;;;;;;22.05;100.00;100902.69;5071310;28;20388;-55
2022/09/13 08:18:53;;;;;;;13.85;10.13;;;;;;;22.11;100.00;100899.31;5071697;28;20128;-54
2022/09/13 08:21:23;;;;;;;15.60;10.27;;;;;;;22.28;100.00;100888.53;5070544;28;20051;-55
2022/09/13 08:23:59;;;;;;;13.88;8.63;;;;;;;22.23;100.00;100885.53;5071796;28;20497;-55
2022/09/13 08:26:27;;;;;;;14.43;7.70;;;;;;;22.34;100.00;100893.19;5070608;28;20460;-54
2022/09/13 08:28:57;;;;;;;10.15;5.97;;;;;;;22.45;100.00;100890.13;5053436;28;20037;-55
2022/09/13 08:31:25;;;;;;;9.88;4.70;;;;;;;22.55;100.00;100894.41;5053284;28;20079;-55
2022/09/13 08:33:54;;;;;;;8.07;4.22;;;;;;;22.53;100.00;100896.44;5071956;28;20032;-56
2022/09/13 08:36:23;;;;;;;7.07;4.13;;;;;;;22.60;100.00;100892.03;5070331;28;20049;-55
2022/09/13 08:38:54;;;;;;;10.90;5.13;;;;;;;22.73;100.00;100889.59;5071663;28;20076;-54
2022/09/13 08:41:51;;;;;;;14.07;7.95;;;;;;;22.76;100.00;100897.28;5071403;28;20048;-55
2022/09/13 08:44:27;;;;;;;12.32;9.40;;;;;;;22.69;99.64;100893.66;5071621;28;20102;-56
2022/09/13 08:47:02;;;;;;;12.52;9.45;;;;;;;22.73;99.97;100894.97;5070112;28;20139;-54
2022/09/13 08:49:34;;;;;;;16.77;10.65;;;;;;;22.86;100.00;100891.66;5071389;28;20123;-53
2022/09/13 08:52:14;;;;;;;14.10;10.47;;;;;;;23.12;98.50;100893.13;5071256;28;20495;-55
2022/09/13 08:54:45;;;;;;;15.32;11.23;;;;;;;23.19;99.25;100893.28;5071161;28;20550;-55
2022/09/13 08:57:22;;;;;;;15.55;11.38;;;;;;;23.31;96.58;100891.00;5070759;28;20032;-54
2022/09/13 08:59:59;;;;;;;17.70;11.32;;;;;;;23.44;95.86;100886.66;5070757;28;20845;-55
2022/09/13 09:02:53;;;;;;;14.98;11.02;;;;;;;23.76;95.11;100894.53;5070619;28;20048;-54
2022/09/13 09:05:23;;;;;;;17.67;12.73;;;;;;;23.77;94.31;100899.69;5069854;28;20052;-55
2022/09/13 09:07:58;;;;;;;14.93;11.98;;;;;;;23.75;94.39;100899.06;5071185;28;20119;-55
2022/09/13 09:10:30;;;;;;;17.15;12.38;;;;;;;23.69;93.89;100899.78;5070226;28;20040;-56
2022/09/13 09:13:06;;;;;;;15.00;11.00;;;;;;;23.60;92.86;100901.75;5071410;28;20076;-55
2022/09/13 09:15:37;;;;;;;15.77;9.63;;;;;;;23.48;93.98;100905.06;5070918;28;20080;-56
2022/09/13 09:18:11;;;;;;;15.23;10.85;;;;;;;23.68;93.55;100913.41;5070861;28;20603;-55
2022/09/13 09:20:42;;;;;;;14.63;10.38;;;;;;;23.41;93.79;100907.63;5070279;28;20072;-55
2022/09/13 09:23:15;;;;;;;12.57;9.70;;;;;;;23.46;93.54;100913.28;5071152;28;20104;-56
2022/09/13 09:25:52;;;;;;;13.50;8.80;;;;;;;23.58;92.45;100913.69;5070476;28;20432;-56
2022/09/13 09:28:21;;;;;;;15.30;8.97;;;;;;;23.68;94.29;100911.53;5070957;28;20044;-54
2022/09/13 09:30:59;;;;;;;12.82;9.57;;;;;;;23.77;91.52;100920.34;5070164;28;20544;-54
2022/09/13 09:33:47;;;;;;;12.43;9.07;;;;;;;23.83;93.02;100911.53;5070434;28;20056;-55
2022/09/13 09:36:23;;;;;;;13.20;9.70;;;;;;;23.83;92.92;100916.09;5068812;28;20048;-56
2022/09/13 09:38:51;;;;;;;14.40;9.23;;;;;;;23.77;90.73;100904.25;5069972;28;20171;-55
2022/09/13 09:41:27;;;;;;;12.35;8.82;;;;;;;23.65;92.11;100906.56;5070094;28;20079;-54
2022/09/13 09:44:06;;;;;;;12.70;8.73;;;;;;;23.53;94.04;100911.56;5070674;28;20049;-54
2022/09/13 09:46:38;;;;;;;13.77;8.30;;;;;;;23.66;92.51;100902.84;5070241;28;20111;-56
2022/09/13 09:50:07;;;;;;;13.02;9.05;;;;;;;23.57;92.39;100906.66;5070658;28;20040;-57
2022/09/13 09:52:06;;;;;;;13.05;7.50;;;;;;;23.44;92.79;100901.94;5069886;28;20072;-57
2022/09/13 09:54:36;;;;;;;12.40;7.45;;;;;;;23.32;94.49;100901.53;5070333;28;20526;-57
2022/09/13 09:57:06;;;;;;;10.85;7.50;;;;;;;23.45;94.59;100903.56;5070642;28;20151;-57
2022/09/13 09:59:36;;;;;;;11.65;7.10;;;;;;;23.20;94.79;100900.31;5070042;28;20052;-57
2022/09/13 10:02:16;;;;;;;11.30;6.70;;;;;;;23.12;93.28;100899.38;5069999;28;20040;-55
2022/09/13 10:04:55;;;;;;;9.95;5.35;;;;;;;22.93;94.04;100895.31;5068617;28;20099;-57
2022/09/13 10:07:31;;;;;;;8.80;5.03;;;;;;;23.10;94.62;100893.31;5070275;28;20078;-57
2022/09/13 10:10:03;;;;;;;9.10;4.65;;;;;;;23.01;93.20;100897.06;5070113;28;20052;-51
2022/09/13 10:12:34;;;;;;;10.93;5.47;;;;;;;23.03;93.41;100895.06;5069987;28;20045;-57
2022/09/13 10:15:16;;;;;;;9.25;5.38;;;;;;;23.03;93.02;100892.38;5069655;28;20098;-57
2022/09/13 10:18:00;;;;;;;7.63;5.03;;;;;;;23.24;93.13;100890.88;5070159;28;20072;-56
2022/09/13 10:20:30;;;;;;;9.02;5.72;;;;;;;23.33;91.36;100897.84;5069020;28;20131;-57
2022/09/13 10:23:21;;;;;;;9.93;5.40;;;;;;;23.40;90.52;100895.25;5069991;28;20718;-56
2022/09/13 10:26:01;;;;;;;10.02;4.70;;;;;;;23.57;90.16;100894.06;5070329;28;20132;-55
2022/09/13 10:28:32;;;;;;;10.48;5.07;;;;;;;23.68;89.02;100897.31;5070540;28;20044;-55
2022/09/13 10:31:07;;;;;;;7.80;4.80;;;;;;;23.68;91.11;100898.13;5069654;28;20103;-56
2022/09/13 10:33:42;;;;;;;8.18;5.00;;;;;;;23.70;89.85;100896.09;5070262;28;20048;-55
2022/09/13 10:36:16;;;;;;;8.50;4.50;;;;;;;23.76;89.31;100897.22;5069052;28;20088;-54
2022/09/13 10:39:04;;;;;;;7.00;3.70;;;;;;;23.71;90.62;100896.94;5069946;28;20044;-54
2022/09/13 10:41:37;;;;;;;7.90;4.47;;;;;;;23.64;90.48;100888.78;5069650;28;20051;-56
2022/09/13 10:44:22;;;;;;;7.60;4.35;;;;;;;23.77;89.94;100894.34;5069939;28;20128;-56
2022/09/13 10:46:52;;;;;;;7.55;4.47;;;;;;;24.01;88.17;100883.50;5069427;28;20059;-55
2022/09/13 10:49:44;;;;;;;8.90;4.70;;;;;;;24.31;87.22;100884.28;5071812;28;20036;-55
2022/09/13 10:52:33;;;;;;;6.32;3.53;;;;;;;24.57;87.03;100880.19;5073342;28;20495;-55
2022/09/13 10:55:36;;;;;;;6.93;3.78;;;;;;;24.11;84.47;100884.06;5073544;28;20044;-57
2022/09/13 10:58:16;;;;;;;6.93;3.13;;;;;;;24.25;85.95;100883.16;5011827;28;20088;-57
2022/09/13 11:01:21;;;;;;;7.50;4.05;;;;;;;24.38;84.38;100879.81;5011229;28;20125;-57
2022/09/13 11:04:42;;;;;;;7.65;3.38;;;;;;;24.55;81.95;100877.69;5061633;28;20163;-56
2022/09/13 11:07:23;;;;;;;8.52;3.88;;;;;;;24.53;82.22;100878.91;5029982;28;20059;-56
2022/09/13 11:09:59;;;;;;;7.13;3.67;;;;;;;24.66;82.50;100873.72;5073200;28;20110;-57
2022/09/13 11:12:36;;;;;;;5.90;2.70;;;;;;;25.14;81.47;100870.38;5071856;28;20139;-58
2022/09/13 11:15:14;;;;;;;5.07;2.63;;;;;;;25.38;78.79;100862.94;5072998;28;20454;-57
2022/09/13 11:18:00;;;;;;;6.10;2.97;;;;;;;25.85;75.13;100863.16;5073124;28;20060;-57
2022/09/13 11:20:39;;;;;;;6.38;3.22;;;;;;;26.11;74.53;100867.84;5071183;28;20094;-57
2022/09/13 11:23:37;;;;;;;4.78;1.90;;;;;;;26.26;74.26;100871.22;5073354;28;20106;-57
2022/09/13 11:26:23;;;;;;;4.32;2.13;;;;;;;26.05;72.00;100863.28;5072966;28;20048;-57
2022/09/13 11:29:04;;;;;;;2.47;1.60;;;;;;;25.90;73.13;100863.41;5071970;28;20066;-57
2022/09/13 11:31:45;;;;;;;4.88;2.05;;;;;;;26.64;71.79;100859.03;5071140;28;20087;-58
2022/09/13 11:34:32;;;;;;;4.45;2.03;;;;;;;27.07;70.41;100852.44;5072552;28;20044;-56
2022/09/13 11:37:20;;;;;;;3.67;1.90;;;;;;;26.84;68.42;100855.56;5072406;28;20151;-57